createdAt,value
2023-04-21T00:01:39.812Z,23.19
2023-04-21T00:04:07.590Z,23.16
2023-04-21T00:06:34.733Z,23.15
2023-04-21T00:09:01.628Z,23.12
2023-04-21T00:11:28.473Z,23.12
2023-04-21T00:13:56.587Z,23.12
2023-04-21T00:16:23.493Z,23.10
2023-04-21T00:18:50.401Z,23.08
2023-04-21T00:21:18.930Z,23.02
2023-04-21T00:23:47.995Z,23.02
2023-04-21T00:26:14.923Z,22.97
2023-04-21T00:28:41.910Z,22.91
2023-04-21T00:31:08.827Z,22.88
2023-04-21T00:33:35.945Z,22.84
2023-04-21T00:36:02.897Z,22.80
2023-04-21T00:38:29.947Z,22.79
2023-04-21T00:40:57.054Z,22.76
2023-04-21T00:43:23.916Z,22.73
2023-04-21T00:45:50.979Z,22.71
2023-04-21T00:48:17.952Z,22.68
2023-04-21T00:50:45.514Z,22.67
2023-04-21T00:53:13.126Z,22.63
2023-04-21T00:55:40.158Z,22.63
2023-04-21T00:58:07.665Z,22.62
2023-04-21T01:00:34.500Z,22.60
2023-04-21T01:03:01.975Z,22.58
2023-04-21T01:05:29.402Z,22.57
2023-04-21T01:07:56.404Z,22.55
2023-04-21T01:10:23.430Z,22.52
2023-04-21T01:12:50.329Z,22.51
2023-04-21T01:15:19.086Z,22.48
2023-04-21T01:17:46.052Z,22.48
2023-04-21T01:20:15.200Z,22.44
2023-04-21T01:22:42.820Z,22.42
2023-04-21T01:25:10.300Z,22.44
2023-04-21T01:27:37.882Z,22.43
2023-04-21T01:30:05.619Z,22.36
2023-04-21T01:32:32.745Z,22.34
2023-04-21T01:35:00.437Z,22.32
2023-04-21T01:37:29.446Z,22.30
2023-04-21T01:39:57.520Z,22.29
2023-04-21T01:42:25.802Z,22.29
2023-04-21T01:44:54.126Z,22.28
2023-04-21T01:47:21.757Z,22.23
2023-04-21T01:49:48.731Z,22.22
2023-04-21T01:52:15.668Z,22.23
2023-04-21T01:54:42.702Z,22.20
2023-04-21T01:57:09.672Z,22.16
2023-04-21T01:59:36.810Z,22.16
2023-04-21T02:02:07.150Z,22.15
2023-04-21T02:04:34.585Z,22.15
2023-04-21T02:07:01.607Z,22.12
2023-04-21T02:09:28.508Z,22.10
2023-04-21T02:11:57.844Z,22.09
2023-04-21T02:14:25.329Z,22.08
2023-04-21T02:16:52.225Z,22.06
2023-04-21T02:19:19.320Z,22.04
2023-04-21T02:21:46.636Z,22.03
2023-04-21T02:24:13.527Z,22.01
2023-04-21T02:26:40.377Z,22.00
2023-04-21T02:29:07.610Z,21.99
2023-04-21T02:31:40.469Z,21.99
2023-04-21T02:34:13.406Z,21.97
2023-04-21T02:36:40.230Z,21.97
2023-04-21T02:39:07.051Z,21.91
2023-04-21T02:41:33.952Z,21.94
2023-04-21T02:44:00.892Z,21.92
2023-04-21T02:46:27.926Z,21.91
2023-04-21T02:48:54.977Z,21.89
2023-04-21T02:51:21.838Z,21.87
2023-04-21T02:53:49.120Z,21.86
2023-04-21T02:56:16.482Z,21.83
2023-04-21T02:58:43.273Z,21.83
2023-04-21T03:01:10.394Z,21.81
2023-04-21T03:03:37.403Z,21.81
2023-04-21T03:06:05.179Z,21.79
2023-04-21T03:08:32.169Z,21.78
2023-04-21T03:10:58.983Z,21.77
2023-04-21T03:13:25.885Z,21.76
2023-04-21T03:15:55.048Z,21.74
2023-04-21T03:18:21.825Z,21.71
2023-04-21T03:20:48.737Z,21.70
2023-04-21T03:23:16.198Z,21.69
2023-04-21T03:25:43.678Z,21.67
2023-04-21T03:28:10.839Z,21.67
2023-04-21T03:30:37.714Z,21.64
2023-04-21T03:33:05.124Z,21.64
2023-04-21T03:35:32.397Z,21.62
2023-04-21T03:37:59.545Z,21.60
2023-04-21T03:40:27.310Z,21.59
2023-04-21T03:42:54.079Z,21.56
2023-04-21T03:45:22.930Z,21.56
2023-04-21T03:47:50.034Z,21.52
2023-04-21T03:50:17.604Z,21.53
2023-04-21T03:52:44.400Z,21.51
2023-04-21T03:55:12.042Z,21.49
2023-04-21T03:57:40.365Z,21.47
2023-04-21T04:00:07.663Z,21.46
2023-04-21T04:02:34.822Z,21.42
2023-04-21T04:05:02.290Z,21.43
2023-04-21T04:07:29.170Z,21.41
2023-04-21T04:09:55.935Z,21.41
2023-04-21T04:12:22.796Z,21.37
2023-04-21T04:14:49.965Z,21.36
2023-04-21T04:17:16.827Z,21.37
2023-04-21T04:19:43.641Z,21.34
2023-04-21T04:22:10.629Z,21.34
2023-04-21T04:24:37.819Z,21.32
2023-04-21T04:27:04.792Z,21.31
2023-04-21T04:29:32.550Z,21.30
2023-04-21T04:32:01.934Z,21.28
2023-04-21T04:34:28.984Z,21.28
2023-04-21T04:36:57.689Z,21.24
2023-04-21T04:39:26.152Z,21.23
2023-04-21T04:41:53.486Z,21.22
2023-04-21T04:44:20.658Z,21.22
2023-04-21T04:46:48.080Z,21.23
2023-04-21T04:49:15.741Z,21.25
2023-04-21T04:51:42.873Z,21.32
2023-04-21T04:54:09.764Z,21.40
2023-04-21T04:56:37.026Z,21.45
2023-04-21T04:59:03.902Z,21.51
2023-04-21T05:01:31.691Z,21.56
2023-04-21T05:03:58.962Z,21.63
2023-04-21T05:06:26.559Z,21.68
2023-04-21T05:08:53.739Z,21.74
2023-04-21T05:11:20.738Z,21.79
2023-04-21T05:13:47.609Z,21.83
2023-04-21T05:16:14.596Z,21.87
2023-04-21T05:18:41.443Z,21.93
2023-04-21T05:21:08.326Z,21.96
2023-04-21T05:23:35.228Z,21.99
2023-04-21T05:26:04.139Z,22.03
2023-04-21T05:28:32.175Z,22.06
2023-04-21T05:30:59.141Z,22.08
2023-04-21T05:33:27.134Z,22.12
2023-04-21T05:35:54.389Z,22.14
2023-04-21T05:38:21.314Z,22.16
2023-04-21T05:40:58.249Z,22.18
2023-04-21T05:43:25.190Z,22.21
2023-04-21T05:45:52.080Z,22.22
2023-04-21T05:48:18.951Z,22.24
2023-04-21T05:50:46.018Z,22.25
2023-04-21T05:53:12.885Z,22.25
2023-04-21T05:55:39.729Z,22.26
2023-04-21T05:58:06.615Z,22.25
2023-04-21T06:00:33.533Z,22.26
2023-04-21T06:03:00.730Z,22.27
2023-04-21T06:05:27.917Z,22.26
2023-04-21T06:07:55.009Z,22.25
2023-04-21T06:10:22.083Z,22.26
2023-04-21T06:12:49.432Z,22.27
2023-04-21T06:15:16.755Z,22.26
2023-04-21T06:17:43.675Z,22.26
2023-04-21T06:20:13.956Z,22.24
2023-04-21T06:22:40.904Z,22.20
2023-04-21T06:25:08.121Z,22.13
2023-04-21T06:27:35.058Z,22.16
2023-04-21T06:30:02.044Z,22.16
2023-04-21T06:32:29.117Z,22.17
2023-04-21T06:34:56.175Z,22.17
2023-04-21T06:37:23.176Z,22.20
2023-04-21T06:39:50.247Z,22.24
2023-04-21T06:42:17.166Z,22.30
2023-04-21T06:44:44.092Z,22.35
2023-04-21T06:47:11.156Z,22.38
2023-04-21T06:49:38.125Z,22.41
2023-04-21T06:52:05.304Z,22.45
2023-04-21T06:54:32.527Z,22.48
2023-04-21T06:56:59.580Z,22.52
2023-04-21T06:59:26.429Z,22.49
2023-04-21T07:01:53.346Z,22.20
2023-04-21T07:04:20.384Z,22.20
2023-04-21T07:06:47.996Z,22.01
2023-04-21T07:09:15.249Z,21.99
2023-04-21T07:11:42.481Z,21.91
2023-04-21T07:14:09.844Z,21.99
2023-04-21T07:16:36.739Z,22.11
2023-04-21T07:19:03.866Z,22.20
2023-04-21T07:21:32.496Z,22.31
2023-04-21T07:23:59.503Z,22.35
2023-04-21T07:26:26.485Z,22.42
2023-04-21T07:28:53.960Z,22.48
2023-04-21T07:31:21.230Z,22.54
2023-04-21T07:33:48.687Z,22.58
2023-04-21T07:36:16.274Z,22.64
2023-04-21T07:38:43.699Z,22.72
2023-04-21T07:41:11.802Z,22.76
2023-04-21T07:43:39.283Z,22.75
2023-04-21T07:46:06.284Z,22.79
2023-04-21T07:51:01.447Z,22.88
2023-04-21T07:53:28.534Z,22.89
2023-04-21T07:55:55.558Z,22.90
2023-04-21T07:58:23.000Z,22.91
2023-04-21T08:00:50.938Z,22.92
2023-04-21T08:03:18.160Z,22.93
2023-04-21T08:05:45.501Z,22.97
2023-04-21T08:08:12.777Z,22.92
2023-04-21T08:10:39.829Z,22.90
2023-04-21T08:13:07.030Z,22.85
2023-04-21T08:15:35.166Z,22.85
2023-04-21T08:20:29.767Z,22.86
2023-04-21T08:22:56.810Z,22.89
2023-04-21T08:25:24.305Z,22.89
2023-04-21T08:27:51.806Z,22.85
2023-04-21T08:30:19.087Z,22.85
2023-04-21T08:32:46.357Z,22.84
2023-04-21T08:35:13.822Z,22.85
2023-04-21T08:37:41.192Z,22.90
2023-04-21T08:40:08.629Z,22.94
2023-04-21T08:42:37.812Z,22.96
2023-04-21T08:45:05.647Z,22.99
2023-04-21T08:47:33.610Z,23.01
2023-04-21T08:50:01.161Z,23.02
2023-04-21T08:52:28.427Z,23.07
2023-04-21T08:54:56.211Z,23.08
2023-04-21T08:57:26.117Z,23.11
2023-04-21T08:59:53.262Z,23.13
2023-04-21T09:02:20.823Z,23.14
2023-04-21T09:04:52.405Z,23.16
2023-04-21T09:07:30.364Z,23.17
2023-04-21T09:09:58.203Z,23.19
2023-04-21T09:12:25.607Z,23.19
2023-04-21T09:14:52.954Z,23.22
2023-04-21T09:17:29.144Z,23.19
2023-04-21T09:19:56.408Z,23.19
2023-04-21T09:22:27.389Z,23.21
2023-04-21T09:25:01.598Z,23.21
2023-04-21T09:27:29.251Z,23.17
2023-04-21T09:29:56.331Z,23.16
2023-04-21T09:32:23.592Z,23.18
2023-04-21T09:34:50.651Z,23.12
2023-04-21T09:37:18.931Z,23.12
2023-04-21T09:40:03.677Z,23.09
2023-04-21T09:42:32.731Z,23.06
2023-04-21T09:47:39.568Z,23.01
2023-04-21T09:52:35.537Z,22.94
2023-04-21T09:55:04.840Z,22.91
2023-04-21T10:00:05.752Z,22.82
2023-04-21T10:02:35.606Z,22.78
2023-04-21T10:05:04.442Z,22.78
2023-04-21T10:07:31.785Z,22.76
2023-04-21T10:09:59.975Z,22.70
2023-04-21T10:12:28.127Z,22.67
2023-04-21T10:14:56.152Z,22.61
2023-04-21T10:17:25.592Z,22.57
2023-04-21T10:19:53.986Z,22.54
2023-04-21T10:22:30.675Z,22.49
2023-04-21T10:24:58.863Z,22.48
2023-04-21T10:27:35.980Z,22.43
2023-04-21T10:30:18.816Z,22.41
2023-04-21T10:32:46.911Z,22.38
2023-04-21T10:35:14.922Z,22.36
2023-04-21T10:37:42.961Z,22.34
2023-04-21T10:40:21.067Z,22.31
2023-04-21T10:42:51.001Z,22.29
2023-04-21T10:45:18.459Z,22.26
2023-04-21T10:47:47.181Z,22.22
2023-04-21T10:50:15.612Z,22.20
2023-04-21T10:52:47.375Z,22.20
2023-04-21T10:55:16.625Z,22.17
2023-04-21T10:57:45.464Z,22.19
2023-04-21T11:00:15.818Z,22.23
2023-04-21T11:02:44.818Z,22.28
2023-04-21T11:05:12.300Z,22.39
2023-04-21T11:07:39.477Z,22.50
2023-04-21T11:10:08.921Z,22.56
2023-04-21T11:12:38.599Z,22.67
2023-04-21T11:15:09.084Z,22.73
2023-04-21T11:17:36.741Z,22.79
2023-04-21T11:20:05.232Z,22.83
2023-04-21T11:24:59.605Z,22.87
2023-04-21T11:27:27.484Z,22.90
2023-04-21T11:29:54.595Z,22.94
2023-04-21T11:32:21.729Z,22.95
2023-04-21T11:34:49.088Z,22.95
2023-04-21T11:37:17.492Z,22.96
2023-04-21T11:39:44.749Z,23.00
2023-04-21T11:42:12.961Z,23.03
2023-04-21T11:44:41.358Z,23.02
2023-04-21T11:47:16.470Z,23.02
2023-04-21T11:49:47.891Z,23.02
2023-04-21T11:52:23.199Z,23.02
2023-04-21T11:54:55.741Z,22.99
2023-04-21T11:57:23.485Z,22.98
2023-04-21T11:59:50.600Z,22.96
2023-04-21T12:02:26.093Z,22.98
2023-04-21T12:05:03.330Z,22.95
2023-04-21T12:07:31.879Z,22.94
2023-04-21T12:09:59.237Z,22.92
2023-04-21T12:12:27.173Z,22.88
2023-04-21T12:14:54.686Z,22.84
2023-04-21T12:17:22.016Z,22.80
2023-04-21T12:19:49.353Z,22.80
2023-04-21T12:22:18.667Z,22.74
2023-04-21T12:24:46.251Z,22.70
2023-04-21T12:27:13.653Z,22.67
2023-04-21T12:29:41.647Z,22.65
2023-04-21T12:32:10.397Z,22.64
2023-04-21T12:34:37.790Z,22.62
2023-04-21T12:37:05.524Z,22.64
2023-04-21T12:39:33.009Z,22.61
2023-04-21T12:42:00.932Z,22.56
2023-04-21T12:44:28.213Z,22.52
2023-04-21T12:46:55.636Z,22.51
2023-04-21T12:49:23.217Z,22.51
2023-04-21T12:51:50.424Z,22.47
2023-04-21T12:54:18.519Z,22.44
2023-04-21T12:56:45.727Z,22.43
2023-04-21T12:59:13.153Z,22.40
2023-04-21T13:01:41.382Z,22.41
2023-04-21T13:04:09.294Z,22.40
2023-04-21T13:06:38.927Z,22.40
2023-04-21T13:09:07.000Z,22.40
2023-04-21T13:11:34.281Z,22.40
2023-04-21T13:14:01.803Z,22.38
2023-04-21T13:16:30.321Z,22.37
2023-04-21T13:18:57.815Z,22.36
2023-04-21T13:21:24.943Z,22.37
2023-04-21T13:23:52.294Z,22.32
2023-04-21T13:26:19.919Z,22.29
2023-04-21T13:28:48.281Z,22.26
2023-04-21T13:31:15.510Z,22.23
2023-04-21T13:33:42.872Z,22.20
2023-04-21T13:36:13.005Z,22.21
2023-04-21T13:38:41.558Z,22.23
2023-04-21T13:41:09.120Z,22.23
2023-04-21T13:43:36.656Z,22.20
2023-04-21T13:46:03.947Z,22.19
2023-04-21T13:48:31.355Z,22.17
2023-04-21T13:50:58.525Z,22.17
2023-04-21T13:53:25.967Z,22.13
2023-04-21T13:55:55.187Z,22.14
2023-04-21T13:58:22.550Z,22.11
2023-04-21T14:00:50.042Z,22.11
2023-04-21T14:03:17.687Z,22.09
2023-04-21T14:05:45.424Z,22.08
2023-04-21T14:08:12.971Z,22.05
2023-04-21T14:10:40.287Z,22.05
2023-04-21T14:13:08.834Z,22.03
2023-04-21T14:15:38.426Z,22.01
2023-04-21T14:18:05.771Z,22.00
2023-04-21T14:20:32.941Z,21.98
2023-04-21T14:23:01.416Z,21.96
2023-04-21T14:25:28.690Z,21.93
2023-04-21T14:27:55.965Z,21.92
2023-04-21T14:30:23.364Z,21.88
2023-04-21T14:32:51.043Z,21.94
2023-04-21T14:35:18.486Z,21.94
2023-04-21T14:37:45.930Z,21.98
2023-04-21T14:40:13.729Z,21.94
2023-04-21T14:42:42.769Z,21.94
2023-04-21T14:45:10.922Z,21.93
2023-04-21T14:47:38.660Z,21.89
2023-04-21T14:50:06.998Z,21.93
2023-04-21T14:52:34.362Z,21.89
2023-04-21T14:55:02.037Z,21.88
2023-04-21T14:57:29.645Z,21.88
2023-04-21T14:59:57.109Z,21.89
2023-04-21T15:02:25.646Z,21.85
2023-04-21T15:04:54.610Z,21.83
2023-04-21T15:07:24.407Z,21.80
2023-04-21T15:09:52.520Z,21.78
2023-04-21T15:12:20.128Z,21.78
2023-04-21T15:14:47.567Z,21.78
2023-04-21T15:17:14.771Z,21.77
2023-04-21T15:19:42.310Z,21.74
2023-04-21T15:22:09.256Z,21.71
2023-04-21T15:24:36.610Z,21.70
2023-04-21T15:27:04.740Z,21.68
2023-04-21T15:29:34.556Z,21.67
2023-04-21T15:32:02.105Z,21.66
2023-04-21T15:34:30.082Z,21.65
2023-04-21T15:36:57.690Z,21.64
2023-04-21T15:39:24.980Z,21.60
2023-04-21T15:41:54.108Z,21.61
2023-04-21T15:44:22.111Z,21.61
2023-04-21T15:46:49.480Z,21.60
2023-04-21T15:49:17.280Z,21.59
2023-04-21T15:51:44.759Z,21.56
2023-04-21T15:54:12.122Z,21.57
2023-04-21T15:56:39.940Z,21.56
2023-04-21T15:59:08.242Z,21.55
2023-04-21T16:01:35.999Z,21.54
2023-04-21T16:04:04.030Z,21.52
2023-04-21T16:06:32.381Z,21.53
2023-04-21T16:08:59.605Z,21.52
2023-04-21T16:11:28.553Z,21.50
2023-04-21T16:13:55.984Z,21.49
2023-04-21T16:16:23.572Z,21.51
2023-04-21T16:18:51.078Z,21.52
2023-04-21T16:21:18.309Z,21.51
2023-04-21T16:23:45.854Z,21.49
2023-04-21T16:26:13.416Z,21.47
2023-04-21T16:28:40.595Z,21.44
2023-04-21T16:31:07.849Z,21.45
2023-04-21T16:33:35.318Z,21.46
2023-04-21T16:36:02.798Z,21.43
2023-04-21T16:38:30.021Z,21.43
2023-04-21T16:40:57.664Z,21.42
2023-04-21T16:43:24.977Z,21.40
2023-04-21T16:45:52.580Z,21.39
2023-04-21T16:48:19.734Z,21.39
2023-04-21T16:50:47.468Z,21.39
2023-04-21T16:53:14.763Z,21.36
2023-04-21T16:55:45.146Z,21.32
2023-04-21T16:58:12.845Z,21.30
2023-04-21T17:00:40.395Z,21.28
2023-04-21T17:03:07.923Z,21.26
2023-04-21T17:05:39.770Z,21.23
2023-04-21T17:08:07.233Z,21.22
2023-04-21T17:10:34.388Z,21.21
2023-04-21T17:13:01.831Z,21.20
2023-04-21T17:15:28.919Z,21.18
2023-04-21T17:17:56.406Z,21.18
2023-04-21T17:20:23.641Z,21.16
2023-04-21T17:22:50.997Z,21.13
2023-04-21T17:25:18.352Z,21.12
2023-04-21T17:27:46.976Z,21.11
2023-04-21T17:30:14.356Z,21.08
2023-04-21T17:32:41.550Z,21.06
2023-04-21T17:35:09.157Z,21.05
2023-04-21T17:37:36.777Z,21.03
2023-04-21T17:40:04.284Z,21.02
2023-04-21T17:42:34.094Z,21.01
2023-04-21T17:45:02.881Z,20.98
2023-04-21T17:47:29.907Z,20.96
2023-04-21T17:49:56.929Z,20.95
2023-04-21T17:52:24.071Z,20.94
2023-04-21T17:54:51.602Z,20.91
2023-04-21T17:57:18.777Z,20.90
2023-04-21T17:59:45.936Z,20.89
2023-04-21T18:02:13.274Z,20.86
2023-04-21T18:04:40.928Z,20.86
2023-04-21T18:07:11.682Z,20.85
2023-04-21T18:09:38.809Z,20.83
2023-04-21T18:12:05.715Z,20.82
2023-04-21T18:14:33.063Z,20.81
2023-04-21T18:17:00.117Z,20.81
2023-04-21T18:19:27.656Z,20.78
2023-04-21T18:21:54.719Z,20.77
2023-04-21T18:24:21.761Z,20.76
2023-04-21T18:26:48.759Z,20.74
2023-04-21T18:29:18.058Z,20.74
2023-04-21T18:31:45.295Z,20.71
2023-04-21T18:34:14.660Z,20.70
2023-04-21T18:36:44.683Z,20.69
2023-04-21T18:39:12.120Z,20.69
2023-04-21T18:41:39.512Z,20.69
2023-04-21T18:44:06.665Z,20.67
2023-04-21T18:46:34.199Z,20.64
2023-04-21T18:49:01.333Z,20.62
2023-04-21T18:51:28.254Z,20.61
2023-04-21T18:53:55.301Z,20.60
2023-04-21T18:56:22.328Z,20.57
2023-04-21T18:58:49.458Z,20.57
2023-04-21T19:01:17.073Z,20.55
2023-04-21T19:03:45.273Z,20.54
2023-04-21T19:06:12.514Z,20.51
2023-04-21T19:08:42.665Z,20.53
2023-04-21T19:11:11.795Z,20.50
2023-04-21T19:13:39.161Z,20.51
2023-04-21T19:16:06.601Z,20.48
2023-04-21T19:18:34.004Z,20.47
2023-04-21T19:21:05.086Z,20.44
2023-04-21T19:23:32.249Z,20.44
2023-04-21T19:26:00.424Z,20.43
2023-04-21T19:28:27.475Z,20.42
2023-04-21T19:30:54.395Z,20.40
2023-04-21T19:33:21.421Z,20.41
2023-04-21T19:35:48.487Z,20.40
2023-04-21T19:38:15.881Z,20.38
2023-04-21T19:40:45.244Z,20.37
2023-04-21T19:43:13.258Z,20.36
2023-04-21T19:45:40.311Z,20.33
2023-04-21T19:48:08.282Z,20.34
2023-04-21T19:50:36.150Z,20.34
2023-04-21T19:53:03.374Z,20.32
2023-04-21T19:55:30.788Z,20.29
2023-04-21T19:57:58.840Z,20.30
2023-04-21T20:00:26.059Z,20.28
2023-04-21T20:02:53.326Z,20.28
2023-04-21T20:05:20.773Z,20.26
2023-04-21T20:07:47.825Z,20.26
2023-04-21T20:10:14.775Z,20.26
2023-04-21T20:12:41.800Z,20.23
2023-04-21T20:15:09.209Z,20.22
2023-04-21T20:17:37.343Z,20.21
2023-04-21T20:20:05.765Z,20.20
2023-04-21T20:22:32.728Z,20.20
2023-04-21T20:24:59.722Z,20.19
2023-04-21T20:27:27.196Z,20.17
2023-04-21T20:29:57.141Z,20.17
2023-04-21T20:32:24.067Z,20.16
2023-04-21T20:34:53.611Z,20.13
2023-04-21T20:37:20.695Z,20.14
2023-04-21T20:39:47.728Z,20.13
2023-04-21T20:42:15.612Z,20.11
2023-04-21T20:44:43.671Z,20.10
2023-04-21T20:47:14.449Z,20.09
2023-04-21T20:49:43.023Z,20.07
2023-04-21T20:52:10.050Z,20.07
2023-04-21T20:54:36.971Z,20.05
2023-04-21T20:57:04.136Z,20.05
2023-04-21T20:59:31.200Z,20.05
2023-04-21T21:01:58.129Z,20.02
2023-04-21T21:04:25.241Z,20.02
2023-04-21T21:06:52.262Z,19.99
2023-04-21T21:09:19.261Z,19.98
2023-04-21T21:11:48.521Z,19.97
2023-04-21T21:14:15.569Z,19.97
2023-04-21T21:16:43.080Z,19.97
2023-04-21T21:19:10.461Z,19.94
2023-04-21T21:21:37.297Z,19.93
2023-04-21T21:24:04.367Z,19.97
2023-04-21T21:26:34.370Z,19.99
2023-04-21T21:29:01.698Z,20.03
2023-04-21T21:31:28.698Z,20.09
2023-04-21T21:33:55.660Z,20.13
2023-04-21T21:36:22.688Z,20.22
2023-04-21T21:38:49.818Z,20.31
2023-04-21T21:41:19.154Z,20.39
2023-04-21T21:43:46.775Z,20.49
2023-04-21T21:46:13.728Z,20.56
2023-04-21T21:48:40.839Z,20.65
2023-04-21T21:51:07.732Z,20.73
2023-04-21T21:53:34.640Z,20.81
2023-04-21T21:56:01.600Z,20.88
2023-04-21T21:58:28.589Z,20.95
2023-04-21T22:00:55.653Z,21.03
2023-04-21T22:03:23.003Z,21.13
2023-04-21T22:05:50.110Z,21.16
2023-04-21T22:08:17.160Z,21.24
2023-04-21T22:10:44.325Z,21.32
2023-04-21T22:13:12.066Z,21.42
2023-04-21T22:15:39.214Z,21.50
2023-04-21T22:18:07.484Z,21.55
2023-04-21T22:20:34.474Z,21.62
2023-04-21T22:23:01.912Z,21.69
2023-04-21T22:25:29.275Z,21.76
2023-04-21T22:27:57.435Z,21.80
2023-04-21T22:30:27.089Z,21.87
2023-04-21T22:32:54.188Z,21.95
2023-04-21T22:35:21.280Z,21.99
2023-04-21T22:37:49.200Z,22.07
2023-04-21T22:40:16.260Z,22.14
2023-04-21T22:42:43.408Z,22.18
2023-04-21T22:45:10.558Z,22.26
2023-04-21T22:47:37.481Z,22.31
2023-04-21T22:50:05.031Z,22.37
2023-04-21T22:52:31.883Z,22.43
2023-04-21T22:54:58.791Z,22.42
2023-04-21T22:57:26.042Z,22.44
2023-04-21T22:59:52.970Z,22.46
2023-04-21T23:02:20.108Z,22.47
2023-04-21T23:04:47.096Z,22.49
2023-04-21T23:07:13.978Z,22.51
2023-04-21T23:09:40.970Z,22.52
2023-04-21T23:12:08.627Z,22.53
2023-04-21T23:14:35.586Z,22.56
2023-04-21T23:17:02.604Z,22.57
2023-04-21T23:19:29.926Z,22.59
2023-04-21T23:21:56.972Z,22.60
2023-04-21T23:24:23.829Z,22.61
2023-04-21T23:26:50.879Z,22.62
2023-04-21T23:29:18.633Z,22.63
2023-04-21T23:31:45.814Z,22.63
2023-04-21T23:34:12.766Z,22.63
2023-04-21T23:36:39.721Z,22.63
2023-04-21T23:39:06.654Z,22.65
2023-04-21T23:41:33.665Z,22.63
2023-04-21T23:44:00.683Z,22.63
2023-04-21T23:46:27.608Z,22.63
2023-04-21T23:48:54.642Z,22.62
2023-04-21T23:51:22.229Z,22.63
2023-04-21T23:53:52.328Z,22.62
2023-04-21T23:56:19.183Z,22.62
2023-04-21T23:58:46.226Z,22.61
